Home > Products > Valid Products > TAF

000
FTUS44 KJAN 111720
TAFGWO
TAF
KGWO 111720Z 1118/1218 32009G19KT P6SM FEW250
     FM120200 02003KT P6SM SCT050 SCT250=



000
FTUS44 KJAN 111720
TAFHBG
TAF
KHBG 111720Z 1118/1218 25012G18KT P6SM SKC
     FM120000 21004KT P6SM SKC
     FM120900 00000KT 3SM BR BKN007
     FM121400 28010KT P6SM BKN025
     FM121600 28010G17KT P6SM BKN050=



000
FTUS44 KJAN 111720
TAFJAN
TAF
KJAN 111720Z 1118/1218 27010G18KT P6SM SKC
     FM120000 35003KT P6SM SKC=



000
FTUS44 KJAN 111720
TAFMEI
TAF
KMEI 111720Z 1118/1218 27010G18KT P6SM SKC
     FM120000 36003KT P6SM SCT250=



000
FTUS44 KJAN 111720
TAFGLH
TAF
KGLH 111720Z 1118/1218 33011G21KT P6SM FEW250
     FM120200 02003KT P6SM BKN250=



000
FTUS44 KJAN 111720
TAFHBG
TAF
KHBG 111720Z 1118/1218 25012G18KT P6SM SKC
     FM120000 21004KT P6SM SKC
     FM120900 00000KT 3SM BR BKN007
     FM121400 28010KT P6SM BKN025
     FM121600 28010G17KT P6SM BKN050=



000
FTUS44 KJAN 111720
TAFGWO
TAF
KGWO 111720Z 1118/1218 32009G19KT P6SM FEW250
     FM120200 02003KT P6SM SCT050 SCT250=



000
FTUS44 KJAN 111720
TAFJAN
TAF
KJAN 111720Z 1118/1218 27010G18KT P6SM SKC
     FM120000 35003KT P6SM SKC=



000
FTUS44 KJAN 111720
TAFMEI
TAF
KMEI 111720Z 1118/1218 27010G18KT P6SM SKC
     FM120000 36003KT P6SM SCT250=



000
FTUS44 KJAN 111720
TAFGLH
TAF
KGLH 111720Z 1118/1218 33011G21KT P6SM FEW250
     FM120200 02003KT P6SM BKN250=



000
FTUS44 KJAN 111120
TAFGLH
TAF
KGLH 111120Z 1112/1212 24005KT P6SM SKC
     FM111500 33011KT P6SM FEW250
     FM120200 02003KT P6SM BKN250=



000
FTUS44 KJAN 111120
TAFGWO
TAF
KGWO 111120Z 1112/1212 21005KT P6SM SKC
     FM111600 32009KT P6SM FEW250
     FM120200 02003KT P6SM SCT050 SCT250=



000
FTUS44 KJAN 111120
TAFJAN
TAF
KJAN 111120Z 1112/1212 20006KT P6SM SKC
     FM111500 27010G17KT P6SM SKC
     FM120000 35003KT P6SM SKC=



000
FTUS44 KJAN 111120
TAFMEI
TAF
KMEI 111120Z 1112/1212 20005KT P6SM SKC
     FM111500 27010G17KT P6SM SKC
     FM120000 36003KT P6SM SCT250=



000
FTUS44 KJAN 111120
TAFHBG
TAF
KHBG 111120Z 1112/1212 24005KT P6SM SKC
     FM111500 25012G18KT P6SM SKC
     FM120000 21004KT P6SM SKC
     FM120900 00000KT 3SM BR BKN007=



000
FTUS44 KJAN 110520
TAFMEI
TAF
KMEI 110520Z 1106/1206 20003KT P6SM SKC
     FM111500 27010KT P6SM SKC
     FM120000 36003KT P6SM SCT250=



000
FTUS44 KJAN 110520
TAFJAN
TAF
KJAN 110520Z 1106/1206 18006KT P6SM SKC
     FM111500 27010G17KT P6SM SKC
     FM120000 35005KT P6SM SKC=



000
FTUS44 KJAN 110520
TAFGLH
TAF
KGLH 110520Z 1106/1206 19005KT P6SM SKC
     FM111500 32010KT P6SM SKC
     FM120000 02004KT P6SM SCT250=



000
FTUS44 KJAN 110520
TAFGWO
TAF
KGWO 110520Z 1106/1206 19004KT P6SM SKC
     FM111500 30010KT P6SM SKC
     FM120000 02003KT P6SM SCT050 SCT250=



000
FTUS44 KJAN 110520
TAFGLH
TAF
KGLH 110520Z 1106/1206 19005KT P6SM SKC
     FM111500 32010KT P6SM SKC
     FM120000 02004KT P6SM SCT250=



000
FTUS44 KJAN 110520
TAFHBG
TAF
KHBG 110520Z 1106/1206 20003KT P6SM SKC
     FM111500 25012G18KT P6SM SKC
     FM120000 21004KT P6SM SKC=



000
FTUS44 KJAN 110520
TAFMEI
TAF
KMEI 110520Z 1106/1206 20003KT P6SM SKC
     FM111500 27010KT P6SM SKC
     FM120000 36003KT P6SM SCT250=



000
FTUS44 KJAN 110520
TAFGWO
TAF
KGWO 110520Z 1106/1206 19004KT P6SM SKC
     FM111500 30010KT P6SM SKC
     FM120000 02003KT P6SM SCT050 SCT250=



000
FTUS44 KJAN 110520
TAFJAN
TAF
KJAN 110520Z 1106/1206 18006KT P6SM SKC
     FM111500 27010G17KT P6SM SKC
     FM120000 35005KT P6SM SKC=



000
FTUS44 KJAN 110520
TAFHBG
TAF
KHBG 110520Z 1106/1206 20003KT P6SM SKC
     FM111500 25012G18KT P6SM SKC
     FM120000 21004KT P6SM SKC=



000
FTUS44 KJAN 102339
TAFHBG
TAF
KHBG 102339Z 1100/1124 20004KT P6SM SKC
     FM111500 25010KT P6SM SKC=



000
FTUS44 KJAN 102339
TAFGLH
TAF
KGLH 102339Z 1100/1124 19006KT P6SM SKC
     FM111500 32010KT P6SM SKC=



000
FTUS44 KJAN 102339
TAFJAN
TAF
KJAN 102339Z 1100/1124 22005KT P6SM SKC
     FM111500 25010KT P6SM SKC=



000
FTUS44 KJAN 102339
TAFHBG
TAF
KHBG 102339Z 1100/1124 20004KT P6SM SKC
     FM111500 25010KT P6SM SKC=



000
FTUS44 KJAN 102339
TAFGWO
TAF
KGWO 102339Z 1100/1124 19004KT P6SM SKC
     FM111600 32007KT P6SM SKC=



000
FTUS44 KJAN 102339
TAFMEI
TAF
KMEI 102339Z 1100/1124 18004KT P6SM SKC
     FM111500 25010KT P6SM SKC=



000
FTUS44 KJAN 102339
TAFGLH
TAF
KGLH 102339Z 1100/1124 19006KT P6SM SKC
     FM111500 32010KT P6SM SKC=



000
FTUS44 KJAN 102339
TAFGWO
TAF
KGWO 102339Z 1100/1124 19004KT P6SM SKC
     FM111600 32007KT P6SM SKC=



000
FTUS44 KJAN 102339
TAFJAN
TAF
KJAN 102339Z 1100/1124 22005KT P6SM SKC
     FM111500 25010KT P6SM SKC=



000
FTUS44 KJAN 102339
TAFMEI
TAF
KMEI 102339Z 1100/1124 18004KT P6SM SKC
     FM111500 25010KT P6SM SKC=



000
FTUS44 KJAN 102052 AAA
TAFMEI
TAF AMD
KMEI 102052Z 1021/1118 27008G16KT P6SM SKC
     FM110000 20006KT P6SM SKC
     FM111400 24010KT P6SM FEW250
     FM111700 27010KT P6SM SCT250=



000
FTUS44 KJAN 102052 AAA
TAFMEI
TAF AMD
KMEI 102052Z 1021/1118 27008G16KT P6SM SKC
     FM110000 20006KT P6SM SKC
     FM111400 24010KT P6SM FEW250
     FM111700 27010KT P6SM SCT250=



000
FTUS44 KJAN 101740
TAFGWO
TAF
KGWO 101740Z 1018/1118 34006KT P6SM SKC
     FM110000 19004KT P6SM SKC
     FM111400 28010KT P6SM FEW250
     FM111700 34010KT P6SM SCT250=



000
FTUS44 KJAN 101740
TAFHBG
TAF
KHBG 101740Z 1018/1118 33010KT P6SM SKC
     FM110000 20004KT P6SM SKC
     FM111400 23011KT P6SM FEW250
     FM111700 25011KT P6SM SCT250=



000
FTUS44 KJAN 101740
TAFGLH
TAF
KGLH 101740Z 1018/1118 19006KT P6SM SKC
     FM111400 28010KT P6SM FEW250
     FM111700 34010KT P6SM SCT250=



000
FTUS44 KJAN 101740
TAFMEI
TAF
KMEI 101740Z 1018/1118 30012G18KT P6SM SKC
     FM102000 19005KT P6SM SKC
     FM111400 24010KT P6SM FEW250
     FM111700 27010KT P6SM SCT250=



000
FTUS44 KJAN 101740
TAFJAN
TAF
KJAN 101740Z 1018/1118 25008KT P6SM SKC
     FM110000 18004KT P6SM SKC
     FM111400 24010KT P6SM FEW250
     FM111700 26010KT P6SM SCT250=



000
FTUS44 KJAN 101740
TAFGLH
TAF
KGLH 101740Z 1018/1118 19006KT P6SM SKC
     FM111400 28010KT P6SM FEW250
     FM111700 34010KT P6SM SCT250=



000
FTUS44 KJAN 101740
TAFGWO
TAF
KGWO 101740Z 1018/1118 34006KT P6SM SKC
     FM110000 19004KT P6SM SKC
     FM111400 28010KT P6SM FEW250
     FM111700 34010KT P6SM SCT250=



000
FTUS44 KJAN 101740
TAFHBG
TAF
KHBG 101740Z 1018/1118 33010KT P6SM SKC
     FM110000 20004KT P6SM SKC
     FM111400 23011KT P6SM FEW250
     FM111700 25011KT P6SM SCT250=



000
FTUS44 KJAN 101740
TAFJAN
TAF
KJAN 101740Z 1018/1118 25008KT P6SM SKC
     FM110000 18004KT P6SM SKC
     FM111400 24010KT P6SM FEW250
     FM111700 26010KT P6SM SCT250=



000
FTUS44 KJAN 101740
TAFMEI
TAF
KMEI 101740Z 1018/1118 30012G18KT P6SM SKC
     FM102000 19005KT P6SM SKC
     FM111400 24010KT P6SM FEW250
     FM111700 27010KT P6SM SCT250=



000
FTUS44 KJAN 101120
TAFMEI
TAF
KMEI 101120Z 1012/1112 31004KT P6SM SKC
     FM101800 29009G15KT P6SM SKC
     FM102000 22004KT P6SM SKC=



000
FTUS44 KJAN 101120
TAFGLH
TAF
KGLH 101120Z 1012/1112 22006KT P6SM SKC=



000
FTUS44 KJAN 101120
TAFGWO
TAF
KGWO 101120Z 1012/1112 22004KT P6SM SKC=



000
FTUS44 KJAN 101120
TAFJAN
TAF
KJAN 101120Z 1012/1112 23004KT P6SM SKC=



000
FTUS44 KJAN 101120
TAFHBG
TAF
KHBG 101120Z 1012/1112 27004KT P6SM SKC=



000
FTUS44 KJAN 100520
TAFGWO
TAF
KGWO 100520Z 1006/1106 25004KT P6SM SKC=



000
FTUS44 KJAN 100520
TAFJAN
TAF
KJAN 100520Z 1006/1106 34005KT P6SM SKC=



000
FTUS44 KJAN 100520
TAFGLH
TAF
KGLH 100520Z 1006/1106 24006KT P6SM SKC=



000
FTUS44 KJAN 100520
TAFHBG
TAF
KHBG 100520Z 1006/1106 32004KT P6SM SKC=



000
FTUS44 KJAN 100520
TAFMEI
TAF
KMEI 100520Z 1006/1106 34006KT P6SM SKC=



000
FTUS44 KJAN 092339
TAFMEI
TAF
KMEI 092339Z 1000/1024 31007KT P6SM SKC=



000
FTUS44 KJAN 092339
TAFHBG
TAF
KHBG 092339Z 1000/1024 30007KT P6SM SKC=



000
FTUS44 KJAN 092339
TAFGLH
TAF
KGLH 092339Z 1000/1024 32009KT P6SM SKC=



000
FTUS44 KJAN 092339
TAFGWO
TAF
KGWO 092339Z 1000/1024 35005KT P6SM SKC=



000
FTUS44 KJAN 092339
TAFJAN
TAF
KJAN 092339Z 1000/1024 31005KT P6SM SKC=



000
FTUS44 KJAN 091722
TAFGLH
TAF
KGLH 091722Z 0918/1018 30021G30KT P6SM SKC
     FM100000 32010KT P6SM SKC=



000
FTUS44 KJAN 091722
TAFGLH
TAF
KGLH 091722Z 0918/1018 30021G30KT P6SM SKC
     FM100000 32010KT P6SM SKC=



000
FTUS44 KJAN 091722
TAFGWO
TAF
KGWO 091722Z 0918/1018 31016G28KT P6SM FEW060
     FM100000 32008KT P6SM SKC=



000
FTUS44 KJAN 091722
TAFGWO
TAF
KGWO 091722Z 0918/1018 31016G28KT P6SM FEW060
     FM100000 32008KT P6SM SKC=



000
FTUS44 KJAN 091722
TAFHBG
TAF
KHBG 091722Z 0918/1018 30021G30KT P6SM SKC
     FM100000 29006KT P6SM SKC
     FM101400 32012G17KT P6SM SKC=



000
FTUS44 KJAN 091722
TAFJAN
TAF
KJAN 091722Z 0918/1018 30019G28KT P6SM SKC
     FM100000 32008KT P6SM SKC=



000
FTUS44 KJAN 091722
TAFMEI
TAF
KMEI 091722Z 0918/1018 29020G29KT P6SM SKC
     FM100000 31006KT P6SM SKC
     FM101400 32012G17KT P6SM SKC=



000
FTUS44 KJAN 091722
TAFMEI
TAF
KMEI 091722Z 0918/1018 29020G29KT P6SM SKC
     FM100000 31006KT P6SM SKC
     FM101400 32012G17KT P6SM SKC=



000
FTUS44 KJAN 091722
TAFHBG
TAF
KHBG 091722Z 0918/1018 30021G30KT P6SM SKC
     FM100000 29006KT P6SM SKC
     FM101400 32012G17KT P6SM SKC=



000
FTUS44 KJAN 091722
TAFJAN
TAF
KJAN 091722Z 0918/1018 30019G28KT P6SM SKC
     FM100000 32008KT P6SM SKC=



000
FTUS44 KJAN 091120
TAFHBG
TAF
KHBG 091120Z 0912/1012 28007KT P6SM SKC
     FM091500 30015G22KT P6SM SCT050
     FM100000 27004KT P6SM SKC=



000
FTUS44 KJAN 091120
TAFGLH
TAF
KGLH 091120Z 0912/1012 28010KT P6SM SKC
     FM091400 29016G22KT P6SM SKC
     FM091600 30020G30KT P6SM SCT050
     FM100000 31006KT P6SM SKC=



000
FTUS44 KJAN 091120
TAFMEI
TAF
KMEI 091120Z 0912/1012 26005KT P6SM SCT250
     FM091500 29012G19KT P6SM SCT050
     FM091700 29017G25KT P6SM BKN050
     FM092300 29012G19KT P6SM SCT050
     FM100000 26005KT P6SM SKC=



000
FTUS44 KJAN 091120
TAFJAN
TAF
KJAN 091120Z 0912/1012 29008KT P6SM SKC
     FM091400 29011G17KT P6SM SKC
     FM091600 30016G22KT P6SM SCT050
     FM091800 30020G30KT P6SM BKN050
     FM092300 30012G19KT P6SM SCT050
     FM100000 31006KT P6SM SKC=



000
FTUS44 KJAN 091120
TAFJAN
TAF
KJAN 091120Z 0912/1012 29008KT P6SM SKC
     FM091400 29011G17KT P6SM SKC
     FM091600 30016G22KT P6SM SCT050
     FM091800 30020G30KT P6SM BKN050
     FM092300 30012G19KT P6SM SCT050
     FM100000 31006KT P6SM SKC=



000
FTUS44 KJAN 091120
TAFMEI
TAF
KMEI 091120Z 0912/1012 26005KT P6SM SCT250
     FM091500 29012G19KT P6SM SCT050
     FM091700 29017G25KT P6SM BKN050
     FM092300 29012G19KT P6SM SCT050
     FM100000 26005KT P6SM SKC=



000
FTUS44 KJAN 091120
TAFGWO
TAF
KGWO 091120Z 0912/1012 27008KT P6SM SKC
     FM091400 29011G17KT P6SM SKC
     FM091600 30016G22KT P6SM SCT050
     FM091800 30018G25KT P6SM BKN050
     FM100000 33006KT P6SM SKC=



000
FTUS44 KJAN 090520
TAFGLH
TAF
KGLH 090520Z 0906/1006 28007KT P6SM SKC
     FM091400 29016G26KT P6SM SKC
     FM100000 31007KT P6SM SKC=



000
FTUS44 KJAN 090520
TAFGLH
TAF
KGLH 090520Z 0906/1006 28007KT P6SM SKC
     FM091400 29016G26KT P6SM SKC
     FM100000 31007KT P6SM SKC=



000
FTUS44 KJAN 090520
TAFJAN
TAF
KJAN 090520Z 0906/1006 28005KT P6SM SKC
     FM091300 30012G18KT P6SM SCT050
     FM091800 30016G23KT P6SM OVC050
     FM100000 32004KT P6SM SKC=



000
FTUS44 KJAN 090520
TAFMEI
TAF
KMEI 090520Z 0906/1006 24004KT P6SM SCT070
     FM091400 29011G17KT P6SM SCT050
     FM091600 29016G23KT P6SM OVC050
     FM100000 27005KT P6SM SKC=



000
FTUS44 KJAN 090520
TAFGWO
TAF
KGWO 090520Z 0906/1006 32006KT P6SM BKN070
     FM091400 30013G21KT P6SM BKN050
     FM100100 33003KT P6SM SKC=



000
FTUS44 KJAN 090520
TAFJAN
TAF
KJAN 090520Z 0906/1006 28005KT P6SM SKC
     FM091300 30012G18KT P6SM SCT050
     FM091800 30016G23KT P6SM OVC050
     FM100000 32004KT P6SM SKC=



000
FTUS44 KJAN 090520
TAFMEI
TAF
KMEI 090520Z 0906/1006 24004KT P6SM SCT070
     FM091400 29011G17KT P6SM SCT050
     FM091600 29016G23KT P6SM OVC050
     FM100000 27005KT P6SM SKC=



000
FTUS44 KJAN 090520
TAFGWO
TAF
KGWO 090520Z 0906/1006 32006KT P6SM BKN070
     FM091400 30013G21KT P6SM BKN050
     FM100100 33003KT P6SM SKC=



000
FTUS44 KJAN 090520
TAFHBG
TAF
KHBG 090520Z 0906/1006 28004KT P6SM SKC
     FM091500 30015G22KT P6SM SCT050
     FM092000 29019G26KT P6SM BKN050
     FM100000 28006KT P6SM SKC=



000
FTUS44 KJAN 090520
TAFHBG
TAF
KHBG 090520Z 0906/1006 28004KT P6SM SKC
     FM091500 30015G22KT P6SM SCT050
     FM092000 29019G26KT P6SM BKN050
     FM100000 28006KT P6SM SKC=



000
FTUS44 KJAN 082332
TAFGWO
TAF
KGWO 082332Z 0900/0924 30012G18KT P6SM SCT060 BKN080
     FM090500 28005KT P6SM SCT050
     FM091400 29014G23KT P6SM SCT050=



000
FTUS44 KJAN 082332
TAFMEI
TAF
KMEI 082332Z 0900/0924 27009KT P6SM SCT080
     FM091500 29014G23KT P6SM BKN050=



000
FTUS44 KJAN 082332
TAFJAN
TAF
KJAN 082332Z 0900/0924 29009KT P6SM SCT100
     FM091500 31015G24KT P6SM SCT060=



000
FTUS44 KJAN 082332
TAFJAN
TAF
KJAN 082332Z 0900/0924 29009KT P6SM SCT100
     FM091500 31015G24KT P6SM SCT060=



000
FTUS44 KJAN 082332
TAFGLH
TAF
KGLH 082332Z 0900/0924 33018G27KT P6SM SCT060 BKN080
     FM090200 30012KT P6SM SCT080
     FM091500 30019G28KT P6SM SCT060=



000
FTUS44 KJAN 082332
TAFGWO
TAF
KGWO 082332Z 0900/0924 30012G18KT P6SM SCT060 BKN080
     FM090500 28005KT P6SM SCT050
     FM091400 29014G23KT P6SM SCT050=



000
FTUS44 KJAN 082332
TAFMEI
TAF
KMEI 082332Z 0900/0924 27009KT P6SM SCT080
     FM091500 29014G23KT P6SM BKN050=



000
FTUS44 KJAN 082332
TAFHBG
TAF
KHBG 082332Z 0900/0924 32013G21KT P6SM SCT100
     FM091500 30015G24KT P6SM SCT060=



000
FTUS44 KJAN 082332
TAFHBG
TAF
KHBG 082332Z 0900/0924 32013G21KT P6SM SCT100
     FM091500 30015G24KT P6SM SCT060=



000
FTUS44 KJAN 082332
TAFGLH
TAF
KGLH 082332Z 0900/0924 33018G27KT P6SM SCT060 BKN080
     FM090200 30012KT P6SM SCT080
     FM091500 30019G28KT P6SM SCT060=



    US Dept of Commerce
    National Oceanic and Atmospheric Administration
    National Weather Service
    1325 East West Highway
    Silver Spring, MD 20910
    Page Author: NWS Internet Services Team
Disclaimer
Information Quality
Credits
Glossary
Privacy Policy
Freedom of Information Act (FOIA)
About Us
Career Opportunities